createdAt,value
2023-04-02T00:00:19.594Z,1006.62
2023-04-02T00:01:19.576Z,1006.65
2023-04-02T00:02:19.564Z,1006.63
2023-04-02T00:03:19.614Z,1006.63
2023-04-02T00:04:19.520Z,1006.70
2023-04-02T00:05:19.543Z,1006.68
2023-04-02T00:06:19.501Z,1006.74
2023-04-02T00:07:19.480Z,1006.71
2023-04-02T00:08:19.486Z,1006.78
2023-04-02T00:09:19.456Z,1006.68
2023-04-02T00:10:19.451Z,1006.83
2023-04-02T00:11:19.428Z,1006.77
2023-04-02T00:12:19.426Z,1006.76
2023-04-02T00:13:19.396Z,1006.77
2023-04-02T00:14:19.440Z,1006.80
2023-04-02T00:15:19.369Z,1006.83
2023-04-02T00:16:19.395Z,1006.77
2023-04-02T00:17:19.348Z,1006.87
2023-04-02T00:18:19.373Z,1006.84
2023-04-02T00:19:19.336Z,1006.91
2023-04-02T00:20:19.329Z,1006.87
2023-04-02T00:21:19.308Z,1006.83
2023-04-02T00:22:19.321Z,1006.88
2023-04-02T00:23:19.272Z,1006.90
2023-04-02T00:24:19.260Z,1006.92
2023-04-02T00:25:19.258Z,1006.90
2023-04-02T00:26:19.250Z,1006.83
2023-04-02T00:27:19.222Z,1006.91
2023-04-02T00:28:19.246Z,1006.94
2023-04-02T00:29:19.212Z,1006.95
2023-04-02T00:30:19.214Z,1006.95
2023-04-02T00:31:19.194Z,1007.04
2023-04-02T00:32:19.986Z,1007.01
2023-04-02T00:33:19.169Z,1006.92
2023-04-02T00:34:19.147Z,1007.00
2023-04-02T00:35:19.136Z,1007.08
2023-04-02T00:36:19.182Z,1007.09
2023-04-02T00:37:19.099Z,1007.06
2023-04-02T00:38:19.115Z,1007.12
2023-04-02T00:39:19.078Z,1007.06
2023-04-02T00:40:19.072Z,1007.06
2023-04-02T00:41:19.064Z,1007.20
2023-04-02T00:42:19.044Z,1007.21
2023-04-02T00:43:19.044Z,1007.19
2023-04-02T00:44:19.018Z,1007.16
2023-04-02T00:45:19.007Z,1007.16
2023-04-02T00:46:19.014Z,1007.17
2023-04-02T00:47:18.983Z,1007.18
2023-04-02T00:48:18.964Z,1007.18
2023-04-02T00:49:18.945Z,1007.24
2023-04-02T00:50:18.962Z,1007.13
2023-04-02T00:51:18.929Z,1007.21
2023-04-02T00:52:18.929Z,1007.25
2023-04-02T00:53:18.891Z,1007.21
2023-04-02T00:54:18.907Z,1007.23
2023-04-02T00:55:18.880Z,1007.27
2023-04-02T00:56:18.854Z,1007.28
2023-04-02T00:57:18.949Z,1007.32
2023-04-02T00:58:18.850Z,1007.32
2023-04-02T00:59:18.816Z,1007.33
2023-04-02T01:00:18.817Z,1007.29
2023-04-02T01:01:18.830Z,1007.35
2023-04-02T01:02:18.808Z,1007.28
2023-04-02T01:03:18.868Z,1007.33
2023-04-02T01:04:18.783Z,1007.35
2023-04-02T01:05:18.738Z,1007.34
2023-04-02T01:06:18.738Z,1007.40
2023-04-02T01:07:18.738Z,1007.42
2023-04-02T01:08:18.721Z,1007.43
2023-04-02T01:09:18.689Z,1007.43
2023-04-02T01:10:18.672Z,1007.43
2023-04-02T01:11:18.657Z,1007.47
2023-04-02T01:12:18.654Z,1007.46
2023-04-02T01:13:18.643Z,1007.44
2023-04-02T01:14:18.636Z,1007.42
2023-04-02T01:15:18.614Z,1007.51
2023-04-02T01:16:18.636Z,1007.52
2023-04-02T01:17:18.698Z,1007.53
2023-04-02T01:18:18.588Z,1007.53
2023-04-02T01:19:18.612Z,1007.58
2023-04-02T01:20:18.545Z,1007.62
2023-04-02T01:21:18.549Z,1007.67
2023-04-02T01:22:18.531Z,1007.59
2023-04-02T01:23:18.504Z,1007.65
2023-04-02T01:24:18.504Z,1007.65
2023-04-02T01:25:18.508Z,1007.69
2023-04-02T01:26:18.487Z,1007.70
2023-04-02T01:27:18.455Z,1007.71
2023-04-02T01:28:18.473Z,1007.71
2023-04-02T01:29:18.478Z,1007.70
2023-04-02T01:30:18.439Z,1007.77
2023-04-02T01:31:18.449Z,1007.80
2023-04-02T01:32:18.410Z,1007.85
2023-04-02T01:33:18.376Z,1007.88
2023-04-02T01:34:18.357Z,1007.92
2023-04-02T01:35:18.369Z,1007.91
2023-04-02T01:36:18.353Z,1007.85
2023-04-02T01:37:18.325Z,1007.95
2023-04-02T01:38:18.304Z,1007.91
2023-04-02T01:39:18.317Z,1007.99
2023-04-02T01:40:18.312Z,1008.00
2023-04-02T01:41:18.282Z,1007.99
2023-04-02T01:42:18.270Z,1008.00
2023-04-02T01:43:18.264Z,1007.96
2023-04-02T01:44:18.241Z,1008.05
2023-04-02T01:45:18.238Z,1008.08
2023-04-02T01:46:18.256Z,1007.99
2023-04-02T01:47:18.199Z,1008.15
2023-04-02T01:48:18.177Z,1008.10
2023-04-02T01:49:18.179Z,1008.09
2023-04-02T01:50:18.170Z,1008.07
2023-04-02T01:51:18.171Z,1008.11
2023-04-02T01:52:18.126Z,1008.14
2023-04-02T01:53:18.126Z,1008.17
2023-04-02T01:54:18.136Z,1008.22
2023-04-02T01:55:18.150Z,1008.25
2023-04-02T01:56:18.092Z,1008.32
2023-04-02T01:57:18.134Z,1008.25
2023-04-02T01:58:18.050Z,1008.25
2023-04-02T01:59:18.057Z,1008.30
2023-04-02T02:00:18.030Z,1008.33
2023-04-02T02:01:18.355Z,1008.35
2023-04-02T02:02:18.018Z,1008.38
2023-04-02T02:03:18.032Z,1008.36
2023-04-02T02:04:17.978Z,1008.47
2023-04-02T02:05:17.977Z,1008.46
2023-04-02T02:06:17.964Z,1008.49
2023-04-02T02:07:17.960Z,1008.52
2023-04-02T02:08:17.933Z,1008.43
2023-04-02T02:09:17.926Z,1008.51
2023-04-02T02:10:17.909Z,1008.50
2023-04-02T02:11:17.931Z,1008.56
2023-04-02T02:12:17.876Z,1008.61
2023-04-02T02:13:17.877Z,1008.60
2023-04-02T02:14:17.844Z,1008.60
2023-04-02T02:15:17.833Z,1008.68
2023-04-02T02:16:17.894Z,1008.64
2023-04-02T02:17:17.845Z,1008.64
2023-04-02T02:18:17.791Z,1008.68
2023-04-02T02:19:17.797Z,1008.71
2023-04-02T02:20:17.766Z,1008.78
2023-04-02T02:21:17.785Z,1008.80
2023-04-02T02:22:17.750Z,1008.78
2023-04-02T02:23:17.762Z,1008.84
2023-04-02T02:24:17.729Z,1008.82
2023-04-02T02:25:17.719Z,1008.81
2023-04-02T02:26:17.723Z,1008.86
2023-04-02T02:27:17.700Z,1008.88
2023-04-02T02:28:17.683Z,1008.90
2023-04-02T02:29:17.679Z,1008.94
2023-04-02T02:30:17.651Z,1008.95
2023-04-02T02:31:17.744Z,1008.96
2023-04-02T02:32:17.632Z,1008.98
2023-04-02T02:33:17.622Z,1008.98
2023-04-02T02:34:17.611Z,1008.99
2023-04-02T02:35:17.584Z,1008.96
2023-04-02T02:36:17.568Z,1009.01
2023-04-02T02:37:17.555Z,1008.95
2023-04-02T02:38:17.583Z,1009.06
2023-04-02T02:39:17.535Z,1009.11
2023-04-02T02:40:17.593Z,1009.13
2023-04-02T02:41:17.530Z,1009.09
2023-04-02T02:42:17.549Z,1009.11
2023-04-02T02:43:17.497Z,1009.13
2023-04-02T02:44:17.483Z,1009.21
2023-04-02T02:45:17.449Z,1009.21
2023-04-02T02:46:17.496Z,1009.19
2023-04-02T02:47:17.423Z,1009.20
2023-04-02T02:48:17.402Z,1009.13
2023-04-02T02:49:17.414Z,1009.27
2023-04-02T02:50:17.393Z,1009.30
2023-04-02T02:51:17.371Z,1009.36
2023-04-02T02:52:17.363Z,1009.29
2023-04-02T02:53:17.350Z,1009.30
2023-04-02T02:54:17.336Z,1009.29
2023-04-02T02:55:17.345Z,1009.34
2023-04-02T02:56:17.302Z,1009.38
2023-04-02T02:57:17.318Z,1009.39
2023-04-02T02:58:17.292Z,1009.38
2023-04-02T02:59:17.301Z,1009.44
2023-04-02T03:00:17.266Z,1009.44
2023-04-02T03:01:17.292Z,1009.44
2023-04-02T03:02:21.636Z,1009.47
2023-04-02T03:03:17.289Z,1009.48
2023-04-02T03:04:17.299Z,1009.53
2023-04-02T03:05:17.217Z,1009.47
2023-04-02T03:06:17.193Z,1009.57
2023-04-02T03:07:17.178Z,1009.53
2023-04-02T03:08:17.149Z,1009.54
2023-04-02T03:09:17.147Z,1009.62
2023-04-02T03:10:17.124Z,1009.65
2023-04-02T03:11:17.119Z,1009.61
2023-04-02T03:12:17.125Z,1009.60
2023-04-02T03:13:17.080Z,1009.65
2023-04-02T03:14:17.069Z,1009.65
2023-04-02T03:15:17.095Z,1009.72
2023-04-02T03:16:17.097Z,1009.70
2023-04-02T03:17:17.033Z,1009.71
2023-04-02T03:18:17.321Z,1009.74
2023-04-02T03:19:17.023Z,1009.74
2023-04-02T03:20:16.999Z,1009.78
2023-04-02T03:21:17.007Z,1009.72
2023-04-02T03:22:17.016Z,1009.81
2023-04-02T03:23:18.376Z,1009.80
2023-04-02T03:24:16.945Z,1009.80
2023-04-02T03:25:16.945Z,1009.81
2023-04-02T03:26:16.923Z,1009.89
2023-04-02T03:27:16.927Z,1009.81
2023-04-02T03:28:16.937Z,1009.87
2023-04-02T03:29:16.892Z,1009.80
2023-04-02T03:30:16.872Z,1009.89
2023-04-02T03:31:16.914Z,1009.76
2023-04-02T03:32:16.857Z,1009.86
2023-04-02T03:33:16.897Z,1009.90
2023-04-02T03:34:16.876Z,1009.96
2023-04-02T03:35:16.806Z,1009.96
2023-04-02T03:36:16.871Z,1009.99
2023-04-02T03:37:16.791Z,1009.98
2023-04-02T03:38:16.800Z,1009.98
2023-04-02T03:39:16.771Z,1010.02
2023-04-02T03:40:16.742Z,1010.05
2023-04-02T03:41:16.771Z,1010.12
2023-04-02T03:42:16.764Z,1010.08
2023-04-02T03:43:16.727Z,1010.14
2023-04-02T03:44:16.714Z,1010.11
2023-04-02T03:45:16.702Z,1010.09
2023-04-02T03:46:16.698Z,1010.15
2023-04-02T03:47:16.650Z,1010.16
2023-04-02T03:48:16.661Z,1010.16
2023-04-02T03:49:16.640Z,1010.21
2023-04-02T03:50:16.651Z,1010.23
2023-04-02T03:51:16.624Z,1010.26
2023-04-02T03:52:16.586Z,1010.27
2023-04-02T03:53:16.580Z,1010.30
2023-04-02T03:54:16.561Z,1010.31
2023-04-02T03:55:16.555Z,1010.35
2023-04-02T03:56:16.543Z,1010.37
2023-04-02T03:57:16.561Z,1010.27
2023-04-02T03:58:16.521Z,1010.34
2023-04-02T03:59:16.502Z,1010.33
2023-04-02T04:00:16.502Z,1010.44
2023-04-02T04:01:16.460Z,1010.36
2023-04-02T04:02:16.478Z,1010.37
2023-04-02T04:03:16.457Z,1010.45
2023-04-02T04:04:16.543Z,1010.52
2023-04-02T04:05:16.441Z,1010.52
2023-04-02T04:06:16.434Z,1010.52
2023-04-02T04:07:16.401Z,1010.50
2023-04-02T04:08:16.384Z,1010.58
2023-04-02T04:09:16.372Z,1010.57
2023-04-02T04:10:16.370Z,1010.63
2023-04-02T04:11:16.366Z,1010.61
2023-04-02T04:12:16.340Z,1010.63
2023-04-02T04:13:16.316Z,1010.60
2023-04-02T04:14:16.291Z,1010.61
2023-04-02T04:15:16.294Z,1010.65
2023-04-02T04:16:16.313Z,1010.64
2023-04-02T04:17:16.277Z,1010.70
2023-04-02T04:18:16.256Z,1010.69
2023-04-02T04:19:16.264Z,1010.70
2023-04-02T04:20:16.233Z,1010.72
2023-04-02T04:21:16.196Z,1010.77
2023-04-02T04:22:16.200Z,1010.78
2023-04-02T04:23:16.170Z,1010.79
2023-04-02T04:24:16.164Z,1010.77
2023-04-02T04:25:16.158Z,1010.81
2023-04-02T04:26:16.168Z,1010.85
2023-04-02T04:27:16.125Z,1010.84
2023-04-02T04:28:16.127Z,1010.84
2023-04-02T04:29:16.110Z,1010.85
2023-04-02T04:30:16.114Z,1010.91
2023-04-02T04:31:16.079Z,1010.90
2023-04-02T04:32:16.125Z,1010.93
2023-04-02T04:33:16.059Z,1010.95
2023-04-02T04:34:16.056Z,1010.96
2023-04-02T04:35:23.065Z,1011.03
2023-04-02T04:36:16.066Z,1011.01
2023-04-02T04:37:16.015Z,1010.96
2023-04-02T04:38:15.989Z,1010.99
2023-04-02T04:39:15.977Z,1011.04
2023-04-02T04:40:15.971Z,1011.03
2023-04-02T04:41:15.983Z,1011.06
2023-04-02T04:42:16.030Z,1011.04
2023-04-02T04:43:15.936Z,1011.09
2023-04-02T04:44:15.915Z,1011.06
2023-04-02T04:45:15.892Z,1011.05
2023-04-02T04:46:15.935Z,1011.08
2023-04-02T04:47:15.882Z,1011.13
2023-04-02T04:48:15.851Z,1011.14
2023-04-02T04:49:15.880Z,1011.13
2023-04-02T04:50:15.859Z,1011.22
2023-04-02T04:51:15.833Z,1011.23
2023-04-02T04:52:15.814Z,1011.26
2023-04-02T04:53:15.845Z,1011.20
2023-04-02T04:54:15.818Z,1011.26
2023-04-02T04:55:15.967Z,1011.25
2023-04-02T04:56:19.127Z,1011.31
2023-04-02T04:57:15.804Z,1011.32
2023-04-02T04:58:15.721Z,1011.31
2023-04-02T04:59:15.732Z,1011.33
2023-04-02T05:00:15.725Z,1011.33
2023-04-02T05:01:15.756Z,1011.33
2023-04-02T05:02:15.676Z,1011.40
2023-04-02T05:03:15.685Z,1011.44
2023-04-02T05:04:15.706Z,1011.44
2023-04-02T05:05:15.655Z,1011.48
2023-04-02T05:06:15.622Z,1011.48
2023-04-02T05:07:15.669Z,1011.50
2023-04-02T05:08:15.618Z,1011.54
2023-04-02T05:09:15.579Z,1011.51
2023-04-02T05:10:15.628Z,1011.57
2023-04-02T05:11:15.583Z,1011.62
2023-04-02T05:12:15.580Z,1011.54
2023-04-02T05:13:15.533Z,1011.62
2023-04-02T05:14:15.553Z,1011.57
2023-04-02T05:15:15.509Z,1011.68
2023-04-02T05:16:15.534Z,1011.67
2023-04-02T05:17:15.499Z,1011.69
2023-04-02T05:18:15.480Z,1011.72
2023-04-02T05:19:15.467Z,1011.69
2023-04-02T05:20:15.457Z,1011.76
2023-04-02T05:21:15.456Z,1011.75
2023-04-02T05:22:15.452Z,1011.78
2023-04-02T05:23:15.393Z,1011.79
2023-04-02T05:24:15.387Z,1011.82
2023-04-02T05:25:15.369Z,1011.85
2023-04-02T05:26:15.471Z,1011.85
2023-04-02T05:27:15.369Z,1011.91
2023-04-02T05:28:15.413Z,1011.88
2023-04-02T05:29:15.348Z,1011.93
2023-04-02T05:30:15.365Z,1011.92
2023-04-02T05:31:15.328Z,1012.00
2023-04-02T05:32:15.335Z,1012.01
2023-04-02T05:33:15.304Z,1011.95
2023-04-02T05:34:15.280Z,1011.95
2023-04-02T05:35:15.277Z,1012.03
2023-04-02T05:36:15.370Z,1011.98
2023-04-02T05:37:15.240Z,1011.98
2023-04-02T05:38:15.236Z,1012.03
2023-04-02T05:39:15.231Z,1012.07
2023-04-02T05:40:15.181Z,1012.09
2023-04-02T05:41:15.222Z,1012.05
2023-04-02T05:42:15.188Z,1012.11
2023-04-02T05:43:15.157Z,1012.05
2023-04-02T05:44:15.251Z,1012.12
2023-04-02T05:45:15.146Z,1012.11
2023-04-02T05:46:15.209Z,1012.09
2023-04-02T05:47:15.136Z,1012.19
2023-04-02T05:48:15.172Z,1012.13
2023-04-02T05:49:15.200Z,1012.30
2023-04-02T05:50:15.087Z,1012.29
2023-04-02T05:51:15.059Z,1012.26
2023-04-02T05:52:15.130Z,1012.28
2023-04-02T05:53:15.054Z,1012.32
2023-04-02T05:54:15.048Z,1012.30
2023-04-02T05:55:15.008Z,1012.25
2023-04-02T05:56:14.994Z,1012.27
2023-04-02T05:57:15.063Z,1012.39
2023-04-02T05:58:34.754Z,1012.32
2023-04-02T05:59:16.011Z,1012.34
2023-04-02T06:00:14.988Z,1012.31
2023-04-02T06:01:14.928Z,1012.37
2023-04-02T06:02:14.966Z,1012.42
2023-04-02T06:03:15.004Z,1012.40
2023-04-02T06:04:14.972Z,1012.44
2023-04-02T06:05:14.881Z,1012.45
2023-04-02T06:06:14.935Z,1012.43
2023-04-02T06:07:14.880Z,1012.49
2023-04-02T06:08:14.891Z,1012.48
2023-04-02T06:09:14.848Z,1012.48
2023-04-02T06:10:14.860Z,1012.48
2023-04-02T06:11:14.822Z,1012.59
2023-04-02T06:12:14.837Z,1012.53
2023-04-02T06:13:14.792Z,1012.57
2023-04-02T06:14:14.780Z,1012.54
2023-04-02T06:15:14.764Z,1012.48
2023-04-02T06:16:14.790Z,1012.61
2023-04-02T06:17:14.710Z,1012.58
2023-04-02T06:18:14.717Z,1012.60
2023-04-02T06:19:14.744Z,1012.71
2023-04-02T06:20:14.721Z,1012.69
2023-04-02T06:21:14.669Z,1012.67
2023-04-02T06:22:14.737Z,1012.71
2023-04-02T06:23:14.666Z,1012.70
2023-04-02T06:24:14.682Z,1012.72
2023-04-02T06:25:14.614Z,1012.69
2023-04-02T06:26:14.660Z,1012.68
2023-04-02T06:27:14.648Z,1012.73
2023-04-02T06:28:14.636Z,1012.68
2023-04-02T06:29:14.585Z,1012.73
2023-04-02T06:30:14.583Z,1012.71
2023-04-02T06:31:14.581Z,1012.81
2023-04-02T06:32:14.528Z,1012.80
2023-04-02T06:33:14.535Z,1012.81
2023-04-02T06:34:14.569Z,1012.83
2023-04-02T06:35:14.516Z,1012.90
2023-04-02T06:36:14.525Z,1012.86
2023-04-02T06:37:14.473Z,1012.89
2023-04-02T06:38:14.468Z,1012.90
2023-04-02T06:39:14.459Z,1012.87
2023-04-02T06:40:14.468Z,1013.00
2023-04-02T06:41:14.444Z,1013.03
2023-04-02T06:42:14.442Z,1012.95
2023-04-02T06:43:14.415Z,1012.93
2023-04-02T06:44:14.375Z,1013.02
2023-04-02T06:45:14.395Z,1013.05
2023-04-02T06:46:14.411Z,1013.06
2023-04-02T06:47:14.385Z,1013.13
2023-04-02T06:48:14.353Z,1013.11
2023-04-02T06:49:14.342Z,1013.11
2023-04-02T06:50:14.324Z,1013.07
2023-04-02T06:51:14.329Z,1013.14
2023-04-02T06:52:14.321Z,1013.12
2023-04-02T06:53:14.266Z,1013.17
2023-04-02T06:54:14.301Z,1013.13
2023-04-02T06:55:14.313Z,1013.22
2023-04-02T06:56:14.252Z,1013.18
2023-04-02T06:57:14.351Z,1013.19
2023-04-02T06:58:14.213Z,1013.17
2023-04-02T06:59:14.201Z,1013.18
2023-04-02T07:00:14.215Z,1013.28
2023-04-02T07:01:14.205Z,1013.25
2023-04-02T07:02:14.168Z,1013.26
2023-04-02T07:03:14.150Z,1013.21
2023-04-02T07:04:14.183Z,1013.29
2023-04-02T07:05:14.199Z,1013.34
2023-04-02T07:06:14.112Z,1013.39
2023-04-02T07:07:14.117Z,1013.32
2023-04-02T07:08:14.071Z,1013.41
2023-04-02T07:09:14.068Z,1013.40
2023-04-02T07:10:14.034Z,1013.43
2023-04-02T07:11:14.022Z,1013.43
2023-04-02T07:12:14.042Z,1013.47
2023-04-02T07:13:13.999Z,1013.48
2023-04-02T07:14:14.300Z,1013.53
2023-04-02T07:15:13.981Z,1013.55
2023-04-02T07:16:14.004Z,1013.49
2023-04-02T07:17:13.960Z,1013.55
2023-04-02T07:18:13.929Z,1013.50
2023-04-02T07:19:13.932Z,1013.52
2023-04-02T07:20:13.920Z,1013.61
2023-04-02T07:21:13.961Z,1013.56
2023-04-02T07:22:13.915Z,1013.56
2023-04-02T07:23:15.264Z,1013.66
2023-04-02T07:24:13.861Z,1013.58
2023-04-02T07:25:13.860Z,1013.62
2023-04-02T07:26:13.842Z,1013.59
2023-04-02T07:27:13.850Z,1013.64
2023-04-02T07:28:13.810Z,1013.64
2023-04-02T07:29:13.800Z,1013.59
2023-04-02T07:30:13.827Z,1013.66
2023-04-02T07:31:13.817Z,1013.50
2023-04-02T07:32:13.785Z,1013.54
2023-04-02T07:33:13.815Z,1013.58
2023-04-02T07:34:13.753Z,1013.57
2023-04-02T07:35:13.723Z,1013.64
2023-04-02T07:36:13.772Z,1013.59
2023-04-02T07:37:13.693Z,1013.66
2023-04-02T07:38:13.799Z,1013.63
2023-04-02T07:39:13.660Z,1013.63
2023-04-02T07:40:13.677Z,1013.65
2023-04-02T07:41:13.698Z,1013.71
2023-04-02T07:42:13.632Z,1013.73
2023-04-02T07:43:13.653Z,1013.70
2023-04-02T07:44:13.625Z,1013.64
2023-04-02T07:45:13.602Z,1013.69
2023-04-02T07:46:13.586Z,1013.72
2023-04-02T07:47:13.577Z,1013.73
2023-04-02T07:48:13.601Z,1013.71
2023-04-02T07:49:13.548Z,1013.79
2023-04-02T07:50:13.516Z,1013.79
2023-04-02T07:51:13.528Z,1013.79
2023-04-02T07:52:13.504Z,1013.84
2023-04-02T07:53:13.504Z,1013.86
2023-04-02T07:54:13.481Z,1013.82
2023-04-02T07:55:13.471Z,1013.86
2023-04-02T07:56:13.461Z,1013.85
2023-04-02T07:57:13.504Z,1013.86
2023-04-02T07:58:13.438Z,1013.97
2023-04-02T07:59:13.417Z,1013.95
2023-04-02T08:00:13.405Z,1014.00
2023-04-02T08:01:13.389Z,1013.95
2023-04-02T08:02:13.468Z,1013.99
2023-04-02T08:03:13.399Z,1014.09
2023-04-02T08:04:13.431Z,1014.04
2023-04-02T08:05:13.373Z,1014.09
2023-04-02T08:06:13.363Z,1014.09
2023-04-02T08:07:13.346Z,1014.17
2023-04-02T08:08:13.289Z,1014.17
2023-04-02T08:09:13.291Z,1014.09
2023-04-02T08:10:13.259Z,1014.18
2023-04-02T08:11:13.281Z,1014.20
2023-04-02T08:12:13.263Z,1014.19
2023-04-02T08:13:13.220Z,1014.16
2023-04-02T08:14:13.249Z,1014.13
2023-04-02T08:15:13.230Z,1014.26
2023-04-02T08:16:13.261Z,1014.18
2023-04-02T08:17:13.199Z,1014.14
2023-04-02T08:18:13.193Z,1014.24
2023-04-02T08:19:13.151Z,1014.22
2023-04-02T08:20:13.133Z,1014.26
2023-04-02T08:21:14.644Z,1014.26
2023-04-02T08:22:13.131Z,1014.26
2023-04-02T08:23:13.101Z,1014.24
2023-04-02T08:24:13.102Z,1014.27
2023-04-02T08:25:13.084Z,1014.33
2023-04-02T08:26:13.059Z,1014.26
2023-04-02T08:27:13.074Z,1014.32
2023-04-02T08:28:13.038Z,1014.27
2023-04-02T08:29:13.023Z,1014.28
2023-04-02T08:30:13.044Z,1014.28
2023-04-02T08:31:13.107Z,1014.34
2023-04-02T08:32:12.992Z,1014.41
2023-04-02T08:33:13.076Z,1014.40
2023-04-02T08:34:12.954Z,1014.39
2023-04-02T08:35:12.951Z,1014.41
2023-04-02T08:36:13.187Z,1014.47
2023-04-02T08:37:12.976Z,1014.50
2023-04-02T08:38:12.939Z,1014.51
2023-04-02T08:39:12.932Z,1014.48
2023-04-02T08:40:12.882Z,1014.52
2023-04-02T08:41:12.884Z,1014.46
2023-04-02T08:42:12.866Z,1014.58
2023-04-02T08:43:12.872Z,1014.61
2023-04-02T08:44:12.873Z,1014.61
2023-04-02T08:45:24.236Z,1014.59
2023-04-02T08:46:13.835Z,1014.62
2023-04-02T08:47:12.836Z,1014.63
2023-04-02T08:48:12.803Z,1014.64
2023-04-02T08:49:12.813Z,1014.67
2023-04-02T08:50:12.762Z,1014.63
2023-04-02T08:51:12.767Z,1014.69
2023-04-02T08:52:12.722Z,1014.70
2023-04-02T08:53:12.738Z,1014.70
2023-04-02T08:54:12.734Z,1014.59
2023-04-02T08:55:12.740Z,1014.68
2023-04-02T08:56:12.723Z,1014.75
2023-04-02T08:57:12.723Z,1014.77
2023-04-02T08:58:12.639Z,1014.81
2023-04-02T08:59:12.649Z,1014.84
2023-04-02T09:00:12.706Z,1014.82
2023-04-02T09:01:12.683Z,1014.88
2023-04-02T09:02:12.629Z,1014.82
2023-04-02T09:03:12.619Z,1014.87
2023-04-02T09:04:12.634Z,1014.87
2023-04-02T09:05:12.771Z,1014.96
2023-04-02T09:06:13.419Z,1014.95
2023-04-02T09:07:12.540Z,1015.01
2023-04-02T09:08:12.531Z,1014.97
2023-04-02T09:09:12.518Z,1015.08
2023-04-02T09:10:12.540Z,1015.11
2023-04-02T09:11:12.511Z,1015.07
2023-04-02T09:12:12.506Z,1015.09
2023-04-02T09:13:12.452Z,1015.05
2023-04-02T09:14:12.443Z,1015.11
2023-04-02T09:15:12.448Z,1015.09
2023-04-02T09:16:12.477Z,1015.15
2023-04-02T09:17:12.491Z,1015.13
2023-04-02T09:18:12.467Z,1015.17
2023-04-02T09:19:12.399Z,1015.23
2023-04-02T09:20:12.403Z,1015.13
2023-04-02T09:21:12.365Z,1015.17
2023-04-02T09:22:12.411Z,1015.21
2023-04-02T09:23:12.336Z,1015.23
2023-04-02T09:24:12.315Z,1015.21
2023-04-02T09:25:12.325Z,1015.28
2023-04-02T09:26:12.285Z,1015.28
2023-04-02T09:27:12.298Z,1015.26
2023-04-02T09:28:12.263Z,1015.29
2023-04-02T09:29:12.251Z,1015.14
2023-04-02T09:30:12.267Z,1015.16
2023-04-02T09:31:12.288Z,1015.19
2023-04-02T09:32:12.233Z,1015.24
2023-04-02T09:33:12.234Z,1015.19
2023-04-02T09:34:12.199Z,1015.16
2023-04-02T09:35:22.331Z,1015.13
2023-04-02T09:36:15.039Z,1015.16
2023-04-02T09:37:12.162Z,1015.23
2023-04-02T09:38:12.134Z,1015.23
2023-04-02T09:39:12.158Z,1015.22
2023-04-02T09:40:12.146Z,1015.24
2023-04-02T09:41:12.110Z,1015.27
2023-04-02T09:42:12.086Z,1015.31
2023-04-02T09:43:12.077Z,1015.28
2023-04-02T09:44:12.056Z,1015.25
2023-04-02T09:45:12.050Z,1015.25
2023-04-02T09:46:12.082Z,1015.29
2023-04-02T09:47:12.037Z,1015.35
2023-04-02T09:48:12.057Z,1015.34
2023-04-02T09:49:11.996Z,1015.38
2023-04-02T09:50:11.993Z,1015.42
2023-04-02T09:51:12.000Z,1015.39
2023-04-02T09:52:11.959Z,1015.47
2023-04-02T09:53:11.955Z,1015.49
2023-04-02T09:54:11.949Z,1015.50
2023-04-02T09:55:11.957Z,1015.47
2023-04-02T09:56:11.892Z,1015.44
2023-04-02T09:57:11.937Z,1015.49
2023-04-02T09:58:11.885Z,1015.52
2023-04-02T09:59:11.933Z,1015.58
2023-04-02T10:00:25.374Z,1015.67
2023-04-02T10:01:12.889Z,1015.61
2023-04-02T10:02:11.846Z,1015.67
2023-04-02T10:03:11.822Z,1015.64
2023-04-02T10:04:11.903Z,1015.67
2023-04-02T10:05:11.841Z,1015.71
2023-04-02T10:06:11.780Z,1015.68
2023-04-02T10:07:11.814Z,1015.64
2023-04-02T10:08:11.754Z,1015.70
2023-04-02T10:09:11.748Z,1015.67
2023-04-02T10:10:11.723Z,1015.70
2023-04-02T10:11:11.746Z,1015.76
2023-04-02T10:12:11.740Z,1015.70
2023-04-02T10:13:11.706Z,1015.74
2023-04-02T10:14:11.661Z,1015.78
2023-04-02T10:15:11.668Z,1015.83
2023-04-02T10:16:11.706Z,1015.80
2023-04-02T10:17:11.682Z,1015.76
2023-04-02T10:18:11.641Z,1015.85
2023-04-02T10:19:11.647Z,1015.81
2023-04-02T10:20:11.609Z,1015.83
2023-04-02T10:21:11.602Z,1015.79
2023-04-02T10:22:11.571Z,1015.85
2023-04-02T10:23:11.542Z,1015.88
2023-04-02T10:24:11.550Z,1015.86
2023-04-02T10:25:11.537Z,1015.85
2023-04-02T10:26:11.537Z,1015.86
2023-04-02T10:27:11.523Z,1015.90
2023-04-02T10:28:11.493Z,1015.98
2023-04-02T10:29:11.499Z,1015.96
2023-04-02T10:30:11.519Z,1015.96
2023-04-02T10:31:11.508Z,1015.82
2023-04-02T10:32:11.457Z,1015.92
2023-04-02T10:33:11.469Z,1015.98
2023-04-02T10:34:11.456Z,1016.01
2023-04-02T10:35:11.422Z,1016.06
2023-04-02T10:36:18.454Z,1016.05
2023-04-02T10:37:11.388Z,1016.07
2023-04-02T10:38:11.383Z,1016.03
2023-04-02T10:39:11.358Z,1016.07
2023-04-02T10:40:11.382Z,1016.08
2023-04-02T10:41:11.339Z,1016.09
2023-04-02T10:42:11.300Z,1016.08
2023-04-02T10:43:11.302Z,1016.11
2023-04-02T10:44:19.493Z,1016.11
2023-04-02T10:45:12.280Z,1016.14
2023-04-02T10:46:11.302Z,1016.12
2023-04-02T10:47:11.242Z,1016.15
2023-04-02T10:48:11.276Z,1016.11
2023-04-02T10:49:11.275Z,1016.14
2023-04-02T10:50:11.219Z,1016.10
2023-04-02T10:51:11.196Z,1016.15
2023-04-02T10:52:11.172Z,1016.18
2023-04-02T10:53:11.191Z,1016.22
2023-04-02T10:54:11.154Z,1016.28
2023-04-02T10:55:11.173Z,1016.25
2023-04-02T10:56:11.138Z,1016.25
2023-04-02T10:57:11.171Z,1016.24
2023-04-02T10:58:11.096Z,1016.28
2023-04-02T10:59:11.096Z,1016.25
2023-04-02T11:00:11.147Z,1016.32
2023-04-02T11:01:11.082Z,1016.33
2023-04-02T11:02:11.050Z,1016.35
2023-04-02T11:03:11.103Z,1016.35
2023-04-02T11:04:11.236Z,1016.42
2023-04-02T11:05:11.033Z,1016.40
2023-04-02T11:06:12.103Z,1016.44
2023-04-02T11:07:14.452Z,1016.42
2023-04-02T11:08:10.998Z,1016.51
2023-04-02T11:09:10.960Z,1016.41
2023-04-02T11:10:11.023Z,1016.44
2023-04-02T11:11:10.963Z,1016.43
2023-04-02T11:12:10.926Z,1016.47
2023-04-02T11:13:10.966Z,1016.51
2023-04-02T11:14:10.907Z,1016.51
2023-04-02T11:15:10.908Z,1016.46
2023-04-02T11:16:10.907Z,1016.55
2023-04-02T11:17:10.852Z,1016.59
2023-04-02T11:18:10.849Z,1016.64
2023-04-02T11:19:10.837Z,1016.62
2023-04-02T11:20:10.844Z,1016.63
2023-04-02T11:21:10.815Z,1016.66
2023-04-02T11:22:10.780Z,1016.65
2023-04-02T11:23:10.791Z,1016.68
2023-04-02T11:24:10.767Z,1016.71
2023-04-02T11:25:10.768Z,1016.75
2023-04-02T11:26:10.740Z,1016.77
2023-04-02T11:27:10.723Z,1016.76
2023-04-02T11:28:10.712Z,1016.73
2023-04-02T11:29:10.708Z,1016.71
2023-04-02T11:30:10.781Z,1016.75
2023-04-02T11:31:10.749Z,1016.76
2023-04-02T11:32:10.651Z,1016.75
2023-04-02T11:33:10.671Z,1016.78
2023-04-02T11:34:10.639Z,1016.66
2023-04-02T11:35:10.635Z,1016.69
2023-04-02T11:36:10.629Z,1016.71
2023-04-02T11:37:10.653Z,1016.75
2023-04-02T11:38:10.602Z,1016.73
2023-04-02T11:39:16.995Z,1016.79
2023-04-02T11:40:11.556Z,1016.77
2023-04-02T11:41:10.544Z,1016.82
2023-04-02T11:42:10.542Z,1016.81
2023-04-02T11:43:10.538Z,1016.80
2023-04-02T11:44:10.507Z,1016.79
2023-04-02T11:45:10.502Z,1016.88
2023-04-02T11:46:10.521Z,1016.83
2023-04-02T11:47:10.478Z,1016.78
2023-04-02T11:48:10.463Z,1016.86
2023-04-02T11:49:10.466Z,1016.83
2023-04-02T11:50:10.442Z,1016.84
2023-04-02T11:51:10.420Z,1016.87
2023-04-02T11:52:12.384Z,1016.87
2023-04-02T11:53:10.392Z,1016.87
2023-04-02T11:54:10.384Z,1016.86
2023-04-02T11:55:10.359Z,1016.88
2023-04-02T11:56:10.376Z,1016.88
2023-04-02T11:57:10.370Z,1016.94
2023-04-02T11:58:10.342Z,1016.97
2023-04-02T11:59:10.317Z,1016.94
2023-04-02T12:00:10.312Z,1016.87
2023-04-02T12:01:10.291Z,1016.89
2023-04-02T12:02:10.340Z,1016.87
2023-04-02T12:03:10.285Z,1016.89
2023-04-02T12:04:10.243Z,1016.84
2023-04-02T12:05:10.343Z,1016.93